createdAt,value
2022-08-25T00:01:33.413Z,98743.03
2022-08-25T00:04:02.538Z,98744.09
2022-08-25T00:06:31.235Z,98739.09
2022-08-25T00:09:00.082Z,98740.41
2022-08-25T00:11:32.910Z,98735.72
2022-08-25T00:14:04.199Z,98742.63
2022-08-25T00:16:32.868Z,98732.66
2022-08-25T00:19:05.440Z,98734.63
2022-08-25T00:21:33.137Z,98734.84
2022-08-25T00:24:02.704Z,98734.16
2022-08-25T00:26:31.097Z,98731.53
2022-08-25T00:29:01.870Z,98723.75
2022-08-25T00:31:37.788Z,98729.72
2022-08-25T00:34:09.869Z,98722.88
2022-08-25T00:36:38.711Z,98734.03
2022-08-25T00:39:08.487Z,98730.94
2022-08-25T00:41:36.767Z,98727.84
2022-08-25T00:44:07.985Z,98727.63
2022-08-25T00:46:42.462Z,98730.84
2022-08-25T00:49:30.627Z,98734.63
2022-08-25T00:52:43.886Z,98736.44
2022-08-25T00:55:14.176Z,98735.03
2022-08-25T00:57:46.737Z,98732.69
2022-08-25T01:00:21.138Z,98735.25
2022-08-25T01:02:48.736Z,98728.75
2022-08-25T01:05:16.302Z,98730.41
2022-08-25T01:07:44.762Z,98723.69
2022-08-25T01:10:13.737Z,98729.09
2022-08-25T01:12:41.586Z,98725.56
2022-08-25T01:15:12.795Z,98725.25
2022-08-25T01:17:52.255Z,98732.97
2022-08-25T01:20:22.491Z,98727.72
2022-08-25T01:22:55.606Z,98729.38
2022-08-25T01:25:53.332Z,98737.97
2022-08-25T01:28:21.474Z,98728.41
2022-08-25T01:30:49.600Z,98736.38
2022-08-25T01:33:19.762Z,98729.75
2022-08-25T01:35:47.563Z,98732.44
2022-08-25T01:38:15.630Z,98731.78
2022-08-25T01:40:43.547Z,98723.94
2022-08-25T01:43:10.988Z,98719.84
2022-08-25T01:45:41.339Z,98729.06
2022-08-25T01:48:09.603Z,98721.09
2022-08-25T01:50:38.259Z,98717.94
2022-08-25T01:53:20.785Z,98731.63
2022-08-25T01:55:56.186Z,98720.81
2022-08-25T01:58:27.143Z,98724.91
2022-08-25T02:00:57.602Z,98722.91
2022-08-25T02:03:26.971Z,98717.38
2022-08-25T02:05:58.899Z,98725.56
2022-08-25T02:08:26.687Z,98724.81
2022-08-25T02:10:55.999Z,98726.13
2022-08-25T02:13:26.969Z,98726.38
2022-08-25T02:16:01.205Z,98728.47
2022-08-25T02:18:29.243Z,98726.69
2022-08-25T02:20:56.951Z,98724.03
2022-08-25T02:23:24.537Z,98731.13
2022-08-25T02:25:52.058Z,98727.34
2022-08-25T02:28:19.719Z,98724.13
2022-08-25T02:30:48.365Z,98723.63
2022-08-25T02:33:15.926Z,98729.13
2022-08-25T02:35:43.532Z,98734.94
2022-08-25T02:38:11.100Z,98733.97
2022-08-25T02:40:39.292Z,98732.94
2022-08-25T02:43:06.895Z,98733.63
2022-08-25T02:45:34.367Z,98737.75
2022-08-25T02:48:03.033Z,98726.50
2022-08-25T02:50:30.785Z,98731.09
2022-08-25T02:52:58.326Z,98731.31
2022-08-25T02:55:25.866Z,98727.59
2022-08-25T02:57:53.282Z,98732.53
2022-08-25T03:00:21.347Z,98729.72
2022-08-25T03:02:50.829Z,98718.28
2022-08-25T03:05:18.389Z,98727.34
2022-08-25T03:07:46.070Z,98721.75
2022-08-25T03:10:17.435Z,98728.84
2022-08-25T03:12:45.764Z,98733.09
2022-08-25T03:15:18.898Z,98735.00
2022-08-25T03:17:47.714Z,98727.94
2022-08-25T03:20:19.317Z,98726.88
2022-08-25T03:22:46.762Z,98719.16
2022-08-25T03:25:32.882Z,98711.06
2022-08-25T03:28:01.569Z,98725.94
2022-08-25T03:30:29.736Z,98717.63
2022-08-25T03:32:57.306Z,98717.56
2022-08-25T03:35:24.900Z,98716.78
2022-08-25T03:37:56.719Z,98719.94
2022-08-25T03:40:24.767Z,98706.00
2022-08-25T03:42:52.443Z,98705.06
2022-08-25T03:45:20.288Z,98713.63
2022-08-25T03:47:49.505Z,98713.50
2022-08-25T03:50:19.478Z,98716.28
2022-08-25T03:52:54.888Z,98718.28
2022-08-25T03:55:25.678Z,98720.16
2022-08-25T03:57:54.925Z,98717.16
2022-08-25T04:00:23.656Z,98721.63
2022-08-25T04:02:51.300Z,98708.22
2022-08-25T04:05:20.507Z,98706.78
2022-08-25T04:07:48.099Z,98716.66
2022-08-25T04:10:15.826Z,98707.88
2022-08-25T04:12:43.441Z,98709.59
2022-08-25T04:15:11.511Z,98710.88
2022-08-25T04:17:40.522Z,98714.53
2022-08-25T04:20:10.215Z,98717.72
2022-08-25T04:22:45.034Z,98706.00
2022-08-25T04:25:12.917Z,98710.00
2022-08-25T04:27:40.518Z,98707.53
2022-08-25T04:30:08.582Z,98706.34
2022-08-25T04:32:36.913Z,98699.09
2022-08-25T04:35:05.655Z,98710.19
2022-08-25T04:37:33.641Z,98704.72
2022-08-25T04:40:01.166Z,98700.66
2022-08-25T04:42:28.934Z,98704.09
2022-08-25T04:44:56.459Z,98703.91
2022-08-25T04:47:24.096Z,98702.97
2022-08-25T04:49:51.572Z,98706.44
2022-08-25T04:52:19.103Z,98711.88
2022-08-25T04:54:47.223Z,98714.47
2022-08-25T04:57:14.661Z,98701.34
2022-08-25T04:59:42.210Z,98701.81
2022-08-25T05:02:10.196Z,98699.84
2022-08-25T05:04:37.933Z,98696.31
2022-08-25T05:07:06.166Z,98708.72
2022-08-25T05:09:35.035Z,98700.66
2022-08-25T05:12:03.361Z,98705.06
2022-08-25T05:14:32.240Z,98707.06
2022-08-25T05:17:00.085Z,98698.81
2022-08-25T05:19:27.595Z,98694.59
2022-08-25T05:21:55.233Z,98700.44
2022-08-25T05:24:26.703Z,98697.56
2022-08-25T05:26:54.672Z,98694.63
2022-08-25T05:29:22.287Z,98689.19
2022-08-25T05:31:51.000Z,98687.59
2022-08-25T05:34:19.923Z,98689.03
2022-08-25T05:36:48.265Z,98691.06
2022-08-25T05:39:15.858Z,98689.78
2022-08-25T05:41:43.400Z,98673.41
2022-08-25T05:44:12.826Z,98673.47
2022-08-25T05:46:40.547Z,98674.63
2022-08-25T05:49:08.024Z,98672.38
2022-08-25T05:51:35.525Z,98665.44
2022-08-25T05:54:03.870Z,98679.38
2022-08-25T05:56:31.636Z,98668.66
2022-08-25T05:58:59.153Z,98672.94
2022-08-25T06:01:47.865Z,98683.56
2022-08-25T06:04:18.473Z,98679.81
2022-08-25T06:06:45.989Z,98671.06
2022-08-25T06:09:13.500Z,98668.22
2022-08-25T06:11:41.859Z,98671.19
2022-08-25T06:14:10.151Z,98675.78
2022-08-25T06:16:39.338Z,98671.66
2022-08-25T06:19:08.771Z,98670.13
2022-08-25T06:21:39.279Z,98664.19
2022-08-25T06:24:12.095Z,98661.75
2022-08-25T06:26:42.248Z,98655.94
2022-08-25T06:29:09.743Z,98657.28
2022-08-25T06:31:37.277Z,98652.09
2022-08-25T06:34:04.883Z,98655.94
2022-08-25T06:36:32.726Z,98647.63
2022-08-25T06:39:00.383Z,98649.78
2022-08-25T06:41:36.732Z,98644.81
2022-08-25T06:44:05.826Z,98641.84
2022-08-25T06:46:36.548Z,98652.75
2022-08-25T06:49:08.366Z,98647.94
2022-08-25T06:51:36.532Z,98632.00
2022-08-25T06:54:05.695Z,98641.09
2022-08-25T06:56:34.405Z,98633.75
2022-08-25T06:59:04.466Z,98634.81
2022-08-25T07:01:33.593Z,98631.72
2022-08-25T07:04:04.950Z,98628.72
2022-08-25T07:06:35.795Z,98626.47
2022-08-25T07:09:05.897Z,98623.28
2022-08-25T07:11:34.591Z,98605.66
2022-08-25T07:14:04.433Z,98620.50
2022-08-25T07:16:32.410Z,98606.50
2022-08-25T07:19:01.411Z,98614.16
2022-08-25T07:21:33.589Z,98614.31
2022-08-25T07:24:10.794Z,98614.44
2022-08-25T07:26:40.743Z,98606.84
2022-08-25T07:29:16.233Z,98608.66
2022-08-25T07:31:45.476Z,98596.22
2022-08-25T07:34:31.914Z,98598.44
2022-08-25T07:36:59.452Z,98586.34
2022-08-25T07:39:28.985Z,98602.53
2022-08-25T07:41:57.252Z,98578.34
2022-08-25T07:44:28.145Z,98578.34
2022-08-25T07:46:56.279Z,98585.03
2022-08-25T07:49:26.926Z,98587.16
2022-08-25T07:52:06.439Z,98578.84
2022-08-25T07:54:37.847Z,98577.53
2022-08-25T07:57:09.465Z,98576.59
2022-08-25T07:59:42.109Z,98574.88
2022-08-25T08:02:17.779Z,98573.53
2022-08-25T08:04:52.643Z,98572.03
2022-08-25T08:07:23.550Z,98571.94
2022-08-25T08:10:42.237Z,98567.81
2022-08-25T08:13:00.787Z,98559.75
2022-08-25T08:15:29.579Z,98560.94
2022-08-25T08:17:59.393Z,98569.28
2022-08-25T08:20:27.614Z,98555.38
2022-08-25T08:22:56.006Z,98544.06
2022-08-25T08:25:26.551Z,98548.97
2022-08-25T08:27:56.540Z,98551.72
2022-08-25T08:30:25.833Z,98546.53
2022-08-25T08:33:11.620Z,98544.13
2022-08-25T08:35:41.121Z,98540.31
2022-08-25T08:38:14.612Z,98535.66
2022-08-25T08:41:24.912Z,98539.84
2022-08-25T08:46:59.387Z,98536.97
2022-08-25T08:49:57.280Z,98541.47
2022-08-25T08:52:41.827Z,98539.97
2022-08-25T08:55:36.072Z,98531.66
2022-08-25T08:58:19.870Z,98538.22
2022-08-25T09:00:56.894Z,98544.34
2022-08-25T09:03:55.001Z,98532.22
2022-08-25T09:06:37.242Z,98538.94
2022-08-25T09:09:07.145Z,98549.38
2022-08-25T09:12:06.242Z,98547.78
2022-08-25T09:15:24.685Z,98557.44
2022-08-25T09:18:22.145Z,98542.19
2022-08-25T09:21:04.520Z,98546.88
2022-08-25T09:24:06.031Z,98547.56
2022-08-25T09:26:40.210Z,98550.53
2022-08-25T09:29:21.256Z,98547.31
2022-08-25T09:31:49.583Z,98541.50
2022-08-25T09:34:23.629Z,98548.69
2022-08-25T09:36:53.453Z,98535.09
2022-08-25T09:39:21.853Z,98544.28
2022-08-25T09:41:56.343Z,98543.84
2022-08-25T09:44:26.173Z,98529.06
2022-08-25T09:47:13.861Z,98529.66
2022-08-25T09:50:01.770Z,98528.69
2022-08-25T09:52:41.273Z,98530.69
2022-08-25T09:55:09.115Z,98522.88
2022-08-25T09:57:43.706Z,98509.56
2022-08-25T10:00:17.736Z,98501.44
2022-08-25T10:03:12.605Z,98505.81
2022-08-25T10:06:13.143Z,98501.09
2022-08-25T10:08:52.178Z,98488.31
2022-08-25T10:11:38.195Z,98496.66
2022-08-25T10:14:31.670Z,98485.94
2022-08-25T10:17:27.708Z,98477.00
2022-08-25T10:20:25.699Z,98470.28
2022-08-25T10:23:11.581Z,98465.47
2022-08-25T10:25:59.341Z,98463.81
2022-08-25T10:28:55.537Z,98468.53
2022-08-25T10:31:25.870Z,98467.91
2022-08-25T10:34:15.252Z,98461.84
2022-08-25T10:37:27.147Z,98465.72
2022-08-25T10:40:20.863Z,98452.56
2022-08-25T10:42:57.206Z,98453.91
2022-08-25T10:45:44.579Z,98454.66
2022-08-25T10:48:26.848Z,98463.28
2022-08-25T10:50:58.679Z,98463.16
2022-08-25T10:53:35.988Z,98452.59
2022-08-25T10:56:42.066Z,98451.38
2022-08-25T10:59:21.327Z,98457.84
2022-08-25T11:02:03.714Z,98449.50
2022-08-25T11:04:44.264Z,98456.66
2022-08-25T11:07:25.821Z,98452.38
2022-08-25T11:10:00.110Z,98458.22
2022-08-25T11:12:32.850Z,98457.44
2022-08-25T11:15:18.453Z,98448.13
2022-08-25T11:17:53.174Z,98459.00
2022-08-25T11:20:26.894Z,98459.38
2022-08-25T11:23:06.741Z,98454.38
2022-08-25T11:25:41.950Z,98452.75
2022-08-25T11:28:12.317Z,98432.19
2022-08-25T11:30:40.950Z,98443.16
2022-08-25T11:33:13.468Z,98445.09
2022-08-25T11:35:54.139Z,98439.91
2022-08-25T11:38:39.992Z,98432.97
2022-08-25T11:41:41.298Z,98426.75
2022-08-25T11:44:27.398Z,98431.53
2022-08-25T11:47:21.479Z,98426.38
2022-08-25T11:50:06.600Z,98429.78
2022-08-25T11:52:34.847Z,98420.44
2022-08-25T11:55:23.579Z,98434.09
2022-08-25T11:57:53.989Z,98442.41
2022-08-25T12:00:43.970Z,98445.19
2022-08-25T12:03:32.932Z,98451.00
2022-08-25T12:06:34.354Z,98466.84
2022-08-25T12:09:01.745Z,98444.97
2022-08-25T12:11:38.602Z,98446.25
2022-08-25T12:14:18.612Z,98453.31
2022-08-25T12:16:52.160Z,98445.94
2022-08-25T12:19:28.942Z,98452.59
2022-08-25T12:22:16.650Z,98471.69
2022-08-25T12:24:48.186Z,98459.94
2022-08-25T12:27:28.304Z,98464.75
2022-08-25T12:30:21.197Z,98478.56
2022-08-25T12:33:07.371Z,98481.22
2022-08-25T12:35:58.523Z,98490.97
2022-08-25T12:38:52.112Z,98501.13
2022-08-25T12:41:33.521Z,98500.28
2022-08-25T12:44:42.066Z,98512.47
2022-08-25T12:47:25.054Z,98548.66
2022-08-25T12:49:52.630Z,98540.91
2022-08-25T12:52:28.075Z,98551.56
2022-08-25T12:55:05.606Z,98508.88
2022-08-25T12:57:46.479Z,98472.72
2022-08-25T13:00:23.874Z,98456.78
2022-08-25T13:03:27.796Z,98459.25
2022-08-25T13:06:44.364Z,98498.94
2022-08-25T13:09:31.845Z,98497.25
2022-08-25T13:11:59.308Z,98493.13
2022-08-25T13:14:33.733Z,98510.84
2022-08-25T13:17:06.893Z,98524.72
2022-08-25T13:19:37.803Z,98523.88
2022-08-25T13:22:16.536Z,98502.84
2022-08-25T13:24:47.630Z,98488.13
2022-08-25T13:27:25.423Z,98481.97
2022-08-25T13:29:57.005Z,98477.47
2022-08-25T13:32:35.079Z,98461.63
2022-08-25T13:35:20.457Z,98477.03
2022-08-25T13:37:49.219Z,98469.34
2022-08-25T13:40:34.087Z,98469.09
2022-08-25T13:43:06.251Z,98468.78
2022-08-25T13:45:41.079Z,98468.38
2022-08-25T13:48:22.745Z,98471.63
2022-08-25T13:50:52.809Z,98468.66
2022-08-25T13:53:26.492Z,98478.94
2022-08-25T13:56:00.296Z,98468.41
2022-08-25T13:58:44.517Z,98471.28
2022-08-25T14:01:47.642Z,98462.44
2022-08-25T14:04:50.887Z,98466.91
2022-08-25T14:07:33.686Z,98466.94
2022-08-25T14:10:08.967Z,98464.47
2022-08-25T14:12:46.622Z,98471.53
2022-08-25T14:15:17.233Z,98463.13
2022-08-25T14:17:49.111Z,98464.84
2022-08-25T14:20:29.107Z,98470.81
2022-08-25T14:23:16.188Z,98469.38
2022-08-25T14:25:47.871Z,98468.50
2022-08-25T14:28:22.832Z,98470.91
2022-08-25T14:30:54.198Z,98465.13
2022-08-25T14:33:28.512Z,98462.34
2022-08-25T14:35:59.732Z,98459.63
2022-08-25T14:38:27.367Z,98452.13
2022-08-25T14:40:55.554Z,98455.66
2022-08-25T14:43:31.587Z,98466.00
2022-08-25T14:46:03.588Z,98474.34
2022-08-25T14:48:44.863Z,98466.91
2022-08-25T14:51:16.116Z,98460.75
2022-08-25T14:53:44.334Z,98462.25
2022-08-25T14:56:12.129Z,98457.66
2022-08-25T14:58:50.820Z,98468.00
2022-08-25T15:01:29.464Z,98471.72
2022-08-25T15:04:04.366Z,98466.59
2022-08-25T15:06:33.638Z,98467.19
2022-08-25T15:09:13.083Z,98453.31
2022-08-25T15:11:50.703Z,98470.28
2022-08-25T15:14:28.970Z,98466.81
2022-08-25T15:17:02.321Z,98473.91
2022-08-25T15:19:30.144Z,98467.50
2022-08-25T15:21:58.073Z,98468.47
2022-08-25T15:24:28.275Z,98475.91
2022-08-25T15:26:59.612Z,98470.47
2022-08-25T15:29:30.319Z,98475.97
2022-08-25T15:32:00.526Z,98472.38
2022-08-25T15:34:28.884Z,98478.47
2022-08-25T15:37:06.696Z,98479.03
2022-08-25T15:39:34.419Z,98473.88
2022-08-25T15:42:02.818Z,98470.97
2022-08-25T15:44:32.342Z,98480.38
2022-08-25T15:47:00.569Z,98482.44
2022-08-25T15:49:29.760Z,98489.38
2022-08-25T15:51:59.345Z,98478.75
2022-08-25T15:54:28.495Z,98493.72
2022-08-25T15:56:59.908Z,98486.00
2022-08-25T15:59:28.441Z,98490.47
2022-08-25T16:01:56.210Z,98497.75
2022-08-25T16:04:25.406Z,98502.06
2022-08-25T16:06:54.485Z,98492.06
2022-08-25T16:09:23.979Z,98494.53
2022-08-25T16:11:57.055Z,98491.59
2022-08-25T16:14:27.867Z,98490.66
2022-08-25T16:16:58.332Z,98487.13
2022-08-25T16:19:28.930Z,98490.97
2022-08-25T16:21:57.808Z,98482.66
2022-08-25T16:24:25.649Z,98475.88
2022-08-25T16:26:55.913Z,98477.41
2022-08-25T16:29:24.223Z,98471.09
2022-08-25T16:31:53.267Z,98476.34
2022-08-25T16:34:21.195Z,98471.53
2022-08-25T16:36:48.636Z,98477.25
2022-08-25T16:39:20.823Z,98480.03
2022-08-25T16:41:49.681Z,98480.94
2022-08-25T16:44:22.590Z,98474.31
2022-08-25T16:46:54.613Z,98476.91
2022-08-25T16:49:24.338Z,98473.03
2022-08-25T16:51:57.475Z,98479.06
2022-08-25T16:54:44.365Z,98483.88
2022-08-25T16:57:12.796Z,98475.50
2022-08-25T16:59:40.208Z,98474.41
2022-08-25T17:02:07.827Z,98465.16
2022-08-25T17:04:35.276Z,98469.00
2022-08-25T17:07:05.124Z,98481.28
2022-08-25T17:09:32.728Z,98467.44
2022-08-25T17:12:00.360Z,98474.38
2022-08-25T17:14:27.828Z,98471.56
2022-08-25T17:16:55.337Z,98480.94
2022-08-25T17:19:25.207Z,98472.78
2022-08-25T17:21:54.934Z,98480.19
2022-08-25T17:24:29.367Z,98483.72
2022-08-25T17:27:01.391Z,98474.19
2022-08-25T17:29:29.710Z,98476.63
2022-08-25T17:31:59.276Z,98478.66
2022-08-25T17:34:27.439Z,98468.31
2022-08-25T17:36:56.617Z,98469.13
2022-08-25T17:39:26.035Z,98468.03
2022-08-25T17:41:53.926Z,98462.78
2022-08-25T17:44:21.538Z,98460.94
2022-08-25T17:46:49.055Z,98459.38
2022-08-25T17:49:17.642Z,98468.16
2022-08-25T17:51:45.727Z,98469.84
2022-08-25T17:54:14.080Z,98478.28
2022-08-25T17:56:41.668Z,98473.81
2022-08-25T17:59:10.081Z,98474.69
2022-08-25T18:01:40.853Z,98474.81
2022-08-25T18:04:17.285Z,98476.50
2022-08-25T18:06:48.726Z,98472.50
2022-08-25T18:09:17.381Z,98469.75
2022-08-25T18:11:46.149Z,98473.41
2022-08-25T18:14:15.125Z,98458.34
2022-08-25T18:16:42.767Z,98463.56
2022-08-25T18:19:14.470Z,98455.72
2022-08-25T18:21:43.185Z,98462.63
2022-08-25T18:24:11.552Z,98443.84
2022-08-25T18:26:41.998Z,98446.94
2022-08-25T18:29:13.381Z,98456.47
2022-08-25T18:31:42.269Z,98461.06
2022-08-25T18:34:11.670Z,98455.38
2022-08-25T18:36:41.201Z,98453.19
2022-08-25T18:39:31.540Z,98451.31
2022-08-25T18:42:02.545Z,98453.50
2022-08-25T18:44:30.268Z,98454.09
2022-08-25T18:46:58.286Z,98445.78
2022-08-25T18:49:26.865Z,98434.88
2022-08-25T18:51:56.663Z,98448.09
2022-08-25T18:54:24.179Z,98438.59
2022-08-25T18:56:54.874Z,98453.34
2022-08-25T18:59:23.582Z,98440.53
2022-08-25T19:01:54.215Z,98455.75
2022-08-25T19:04:28.369Z,98441.28
2022-08-25T19:07:00.283Z,98445.31
2022-08-25T19:09:28.153Z,98443.56
2022-08-25T19:11:56.055Z,98444.03
2022-08-25T19:14:23.862Z,98448.34
2022-08-25T19:16:54.777Z,98442.16
2022-08-25T19:19:23.815Z,98442.94
2022-08-25T19:21:51.855Z,98435.22
2022-08-25T19:24:19.699Z,98438.75
2022-08-25T19:26:49.584Z,98434.22
2022-08-25T19:29:20.201Z,98431.94
2022-08-25T19:31:50.179Z,98435.28
2022-08-25T19:34:28.220Z,98437.19
2022-08-25T19:37:00.480Z,98434.41
2022-08-25T19:39:30.634Z,98423.28
2022-08-25T19:41:58.548Z,98431.75
2022-08-25T19:44:27.909Z,98428.81
2022-08-25T19:46:56.684Z,98435.22
2022-08-25T19:49:31.772Z,98432.63
2022-08-25T19:52:03.519Z,98435.81
2022-08-25T19:54:44.167Z,98424.78
2022-08-25T19:57:28.472Z,98431.31
2022-08-25T20:00:02.802Z,98425.44
2022-08-25T20:02:39.954Z,98426.22
2022-08-25T20:05:08.549Z,98423.13
2022-08-25T20:07:36.376Z,98415.63
2022-08-25T20:10:07.951Z,98430.75
2022-08-25T20:12:35.840Z,98416.88
2022-08-25T20:15:05.757Z,98414.56
2022-08-25T20:17:33.877Z,98415.47
2022-08-25T20:20:05.564Z,98423.19
2022-08-25T20:22:34.295Z,98408.84
2022-08-25T20:25:15.134Z,98412.03
2022-08-25T20:27:48.675Z,98409.03
2022-08-25T20:30:25.822Z,98414.81
2022-08-25T20:32:55.017Z,98414.06
2022-08-25T20:35:26.691Z,98406.97
2022-08-25T20:37:56.933Z,98412.38
2022-08-25T20:40:28.137Z,98403.78
2022-08-25T20:42:58.925Z,98403.13
2022-08-25T20:45:26.562Z,98401.59
2022-08-25T20:47:54.046Z,98399.09
2022-08-25T20:50:23.731Z,98398.75
2022-08-25T20:52:54.336Z,98407.94
2022-08-25T20:55:22.111Z,98404.28
2022-08-25T20:57:49.692Z,98396.88
2022-08-25T21:00:17.920Z,98402.72
2022-08-25T21:02:46.585Z,98395.53
2022-08-25T21:05:14.543Z,98397.19
2022-08-25T21:07:42.266Z,98386.53
2022-08-25T21:10:14.377Z,98398.25
2022-08-25T21:12:43.504Z,98402.53
2022-08-25T21:15:17.910Z,98397.91
2022-08-25T21:17:50.898Z,98405.81
2022-08-25T21:20:18.715Z,98395.28
2022-08-25T21:22:46.426Z,98396.03
2022-08-25T21:25:14.660Z,98395.28
2022-08-25T21:27:43.377Z,98389.09
2022-08-25T21:30:12.367Z,98394.44
2022-08-25T21:32:39.857Z,98389.31
2022-08-25T21:35:23.441Z,98395.09
2022-08-25T21:37:53.254Z,98394.50
2022-08-25T21:40:23.268Z,98402.00
2022-08-25T21:42:51.503Z,98404.06
2022-08-25T21:45:20.944Z,98406.97
2022-08-25T21:47:49.652Z,98405.06
2022-08-25T21:50:17.270Z,98397.00
2022-08-25T21:52:45.308Z,98404.00
2022-08-25T21:55:15.991Z,98403.66
2022-08-25T21:57:44.197Z,98406.88
2022-08-25T22:00:15.224Z,98415.91
2022-08-25T22:02:46.126Z,98407.75
2022-08-25T22:05:13.965Z,98414.41
2022-08-25T22:07:44.317Z,98400.47
2022-08-25T22:10:17.746Z,98407.00
2022-08-25T22:12:47.913Z,98413.63
2022-08-25T22:15:18.003Z,98403.03
2022-08-25T22:17:47.921Z,98416.28
2022-08-25T22:20:18.410Z,98404.91
2022-08-25T22:22:46.022Z,98398.72
2022-08-25T22:25:13.690Z,98398.72
2022-08-25T22:27:41.277Z,98401.16
2022-08-25T22:30:09.469Z,98398.72
2022-08-25T22:32:37.688Z,98394.09
2022-08-25T22:35:05.566Z,98392.69
2022-08-25T22:37:34.113Z,98389.38
2022-08-25T22:40:03.146Z,98397.19
2022-08-25T22:42:31.641Z,98399.66
2022-08-25T22:44:59.205Z,98402.28
2022-08-25T22:47:26.761Z,98399.88
2022-08-25T22:49:55.630Z,98396.97
2022-08-25T22:52:33.222Z,98400.63
2022-08-25T22:55:01.969Z,98401.41
2022-08-25T22:57:31.094Z,98401.28
2022-08-25T22:59:59.513Z,98395.56
2022-08-25T23:02:30.240Z,98394.81
2022-08-25T23:04:58.114Z,98393.34
2022-08-25T23:07:31.289Z,98405.63
2022-08-25T23:10:02.803Z,98405.72
2022-08-25T23:12:31.149Z,98393.34
2022-08-25T23:14:58.638Z,98393.03
2022-08-25T23:17:29.516Z,98395.44
2022-08-25T23:19:57.297Z,98395.78
2022-08-25T23:22:24.833Z,98390.72
2022-08-25T23:24:54.571Z,98387.94
2022-08-25T23:27:22.081Z,98396.31
2022-08-25T23:29:50.499Z,98390.81
2022-08-25T23:32:19.077Z,98397.44
2022-08-25T23:34:47.115Z,98388.19
2022-08-25T23:37:18.638Z,98390.94
2022-08-25T23:39:50.013Z,98382.66
2022-08-25T23:42:19.477Z,98385.50
2022-08-25T23:44:48.233Z,98390.69
2022-08-25T23:47:16.450Z,98390.59
2022-08-25T23:49:45.870Z,98390.72
2022-08-25T23:52:17.491Z,98379.91
2022-08-25T23:54:46.113Z,98388.59
2022-08-25T23:57:13.583Z,98374.47
2022-08-25T23:59:43.317Z,98378.78
